Martha's Vineyard, MA

12:26 PM EDT on April 27, 2015 (GMT -0400)
Martha's Vineyard | | Change Station
CLOSE
Current Station
Airport
Location: Martha's Vineyard,
Elevation: 69 ft
Nearby Weather Stations

Elev 69 ft 41.39 °N, 70.61 °W | Updated 33 minutes ago

Overcast
Overcast
56 °F
Feels Like 56 °F
N
7
Wind Variable Wind from Variable

Today
High -- | Low -- °F
--% Chance of Precip.
Yesterday
High -- | Low -- °F
Precip. -- in
5:45 AM 7:35 PM
Waxing Gibbous, 66% visible
Pressure 29.57 in
Visibility 10.0 miles
Clouds Scattered Clouds 4200 ft
Overcast 10000 ft
Dew Point 36 °F
Humidity 47%
Rainfall 0.00 in
Snow Depth Not available.
UV 3 out of 12
Pollen 10.50 out of 12
Air Quality Not available.
Flu Activity Widespread
METAR KMVY 271553Z VRB06KT 10SM SCT042 OVC100 13/02 A2957 RMK AO2 SLP013 T01330022

More Conditions Fewer Conditions

Pressure 29.57 in
Visibility 10.0 miles
Clouds Scattered Clouds 4200 ft
Overcast 10000 ft
Dew Point 36 °F
Humidity 47%
Rainfall 0.00 in
Snow Depth Not available.
UV 3 out of 12
Pollen 10.50 out of 12
Air Quality Not available.
Flu Activity Widespread
METAR KMVY 271553Z VRB06KT 10SM SCT042 OVC100 13/02 A2957 RMK AO2 SLP013 T01330022

More Conditions Fewer Conditions

10-Day Weather Forecast

Almanac

Astronomy

Apr. 27, 2015 Rise Set
Actual Time
Civil Twilight
Nautical Twilight
Astronomical Twilight
Moon
Length of Visible Light
Length of Day
Tomorrow will be .
, % of the Moon is Illuminated

Today's Extremes

State Highs State Lows

Community

WunderPhotos

Upload Photos

1,817,334 photos uploaded!

WunderBlogs® & News

Nearby

Air Quality

  Air Quality AQ Index Pollutant
Not available.

Snow Depth

Station Depth Elevation

Earthquake Activity

City Distance Mag. Time & Date
Minimum magnitude displayed is 2.5.

Coastal Water Temperatures

Place Temperature

Stations

Nearby Weather Stations

Station Location Temp. Windchill Dew Point Humidity Wind Precip. Elev Updated Type